Time;durP1;ratioP1;P1;durP2;ratioP2;P2;SDS_P1;SDS_P2;PMS_P1;PMS_P2;Temp;Humidity;BMP_temperature;BMP_pressure;BME280_temperature;BME280_humidity;BME280_pressure;Samples;Min_cycle;Max_cycle;Signal;HPM_P1;HPM_P2
2021/12/06 00:01:07;;;;;;;66.55;34.53;;;;;;;2.54;100.00;101202.22;5079361;28;20055;-73
2021/12/06 00:03:45;;;;;;;70.03;36.17;;;;;;;2.58;100.00;101210.13;5077671;28;20020;-75
2021/12/06 00:06:12;;;;;;;70.50;35.92;;;;;;;2.63;100.00;101210.44;5079023;28;20031;-71
2021/12/06 00:08:38;;;;;;;63.90;34.42;;;;;;;2.56;100.00;101196.47;5080634;28;20035;-71
2021/12/06 00:11:08;;;;;;;66.45;35.20;;;;;;;2.67;100.00;101213.28;5078072;28;20040;-71
2021/12/06 00:13:40;;;;;;;65.95;34.78;;;;;;;2.72;100.00;101213.56;5079173;28;20035;-70
2021/12/06 00:16:12;;;;;;;60.70;32.65;;;;;;;2.67;100.00;101205.69;5078700;28;20020;-71
2021/12/06 00:18:37;;;;;;;63.92;32.92;;;;;;;2.72;100.00;101217.78;5074411;28;20565;-71
2021/12/06 00:21:05;;;;;;;64.88;35.08;;;;;;;2.75;100.00;101223.06;5076077;28;20042;-71
2021/12/06 00:23:30;;;;;;;61.78;34.15;;;;;;;2.77;100.00;101232.53;5080341;28;20478;-69
2021/12/06 00:25:57;;;;;;;58.47;33.85;;;;;;;2.79;100.00;101230.06;5078720;28;20038;-73
2021/12/06 00:28:23;;;;;;;59.05;32.92;;;;;;;2.77;100.00;101231.66;5079067;28;20123;-71
2021/12/06 00:30:50;;;;;;;60.92;33.85;;;;;;;2.76;100.00;101228.22;5077790;28;20080;-70
2021/12/06 00:33:16;;;;;;;59.17;33.05;;;;;;;2.75;100.00;101223.94;5078437;28;20123;-71
2021/12/06 00:35:42;;;;;;;58.13;32.47;;;;;;;2.76;100.00;101234.97;5079952;28;20111;-70
2021/12/06 00:38:07;;;;;;;58.40;32.05;;;;;;;2.76;100.00;101227.34;5077814;28;20052;-71
2021/12/06 00:40:45;;;;;;;56.95;32.38;;;;;;;2.74;100.00;101232.34;5087683;28;20034;-74
2021/12/06 00:43:11;;;;;;;56.42;31.73;;;;;;;2.71;100.00;101233.78;5085971;28;20514;-70
2021/12/06 00:45:37;;;;;;;55.50;32.10;;;;;;;2.74;100.00;101246.69;5086175;28;20103;-71
2021/12/06 00:48:03;;;;;;;55.60;32.35;;;;;;;2.75;100.00;101254.41;5079897;28;20039;-71
2021/12/06 00:50:34;;;;;;;60.88;32.38;;;;;;;2.75;100.00;101256.94;5085095;28;20032;-72
2021/12/06 00:53:00;;;;;;;64.50;33.58;;;;;;;2.72;100.00;101263.47;5085654;28;20020;-71
2021/12/06 00:55:26;;;;;;;59.70;33.58;;;;;;;2.74;100.00;101267.00;5083484;28;20039;-71
2021/12/06 00:57:54;;;;;;;67.93;34.20;;;;;;;2.76;100.00;101273.94;5087940;28;20020;-71
2021/12/06 01:00:42;;;;;;;61.53;32.53;;;;;;;2.75;100.00;101289.97;5087725;28;20051;-71
2021/12/06 01:03:11;;;;;;;63.75;33.78;;;;;;;2.73;100.00;101286.44;5088667;28;20024;-70
2021/12/06 01:05:37;;;;;;;60.88;32.58;;;;;;;2.78;100.00;101304.50;5087131;28;20023;-74
2021/12/06 01:08:03;;;;;;;58.83;33.67;;;;;;;2.77;100.00;101300.22;5090677;28;20040;-70
2021/12/06 01:10:29;;;;;;;62.50;33.47;;;;;;;2.76;100.00;101303.53;5086200;28;20079;-71
2021/12/06 01:12:56;;;;;;;66.38;33.72;;;;;;;2.76;100.00;101295.91;5089072;28;20032;-71
2021/12/06 01:15:22;;;;;;;60.47;33.63;;;;;;;2.75;100.00;101296.72;5088738;28;20051;-70
2021/12/06 01:17:48;;;;;;;62.90;35.30;;;;;;;2.76;100.00;101288.31;5087128;28;20059;-70
2021/12/06 01:20:19;;;;;;;58.25;33.60;;;;;;;2.75;100.00;101282.34;5087827;28;20035;-71
2021/12/06 01:23:00;;;;;;;60.65;34.50;;;;;;;2.73;100.00;101285.53;5086724;28;20024;-74
2021/12/06 01:30:56;;;;;;;62.53;33.50;;;;;;;2.69;100.00;101295.50;5089018;28;20505;-73
2021/12/06 01:41:24;;;;;;;64.57;33.70;;;;;;;2.72;100.00;101309.19;5087604;28;20434;-70
2021/12/06 01:44:12;;;;;;;60.67;33.67;;;;;;;2.73;100.00;101310.94;5086082;28;20097;-72
2021/12/06 01:46:45;;;;;;;60.25;32.38;;;;;;;2.72;100.00;101304.09;5087474;28;20020;-69
2021/12/06 01:49:12;;;;;;;56.25;32.10;;;;;;;2.69;100.00;101318.38;5087653;28;20024;-71
2021/12/06 01:51:38;;;;;;;61.47;32.97;;;;;;;2.69;100.00;101315.81;5088627;28;20031;-70
2021/12/06 01:54:06;;;;;;;57.47;33.13;;;;;;;2.70;100.00;101324.31;5090314;28;20036;-70
2021/12/06 01:56:31;;;;;;;61.95;32.60;;;;;;;2.65;100.00;101320.59;5088439;28;20024;-72
2021/12/06 01:58:57;;;;;;;61.63;33.20;;;;;;;2.66;100.00;101318.16;5087798;28;20020;-72
2021/12/06 02:01:22;;;;;;;60.63;33.22;;;;;;;2.62;100.00;101320.41;5087791;28;20031;-71
2021/12/06 02:03:48;;;;;;;57.88;31.27;;;;;;;2.63;100.00;101330.66;5086781;28;21289;-72
2021/12/06 02:06:14;;;;;;;64.82;33.03;;;;;;;2.62;100.00;101328.91;5086401;28;20036;-73
2021/12/06 02:08:39;;;;;;;60.10;31.65;;;;;;;2.63;100.00;101325.56;5088033;28;20467;-75
2021/12/06 02:11:06;;;;;;;62.63;33.78;;;;;;;2.60;100.00;101321.94;5087369;28;20034;-72
2021/12/06 02:13:41;;;;;;;60.08;32.50;;;;;;;2.61;100.00;101332.22;5085016;28;20028;-72
2021/12/06 02:16:07;;;;;;;71.75;33.80;;;;;;;2.65;100.00;101333.28;5086398;28;20039;-70
2021/12/06 02:21:17;;;;;;;63.85;33.55;;;;;;;2.66;100.00;101332.50;5090122;28;20174;-71
2021/12/06 02:23:43;;;;;;;64.10;33.00;;;;;;;2.60;100.00;101325.34;5087135;28;20030;-71
2021/12/06 02:26:08;;;;;;;63.92;34.10;;;;;;;2.66;100.00;101333.38;5089250;28;20040;-71
2021/12/06 02:28:34;;;;;;;63.97;33.85;;;;;;;2.63;100.00;101340.81;5084156;28;20482;-69
2021/12/06 02:31:00;;;;;;;64.05;34.63;;;;;;;2.64;100.00;101341.69;5084918;28;20482;-70
2021/12/06 02:33:25;;;;;;;60.78;32.67;;;;;;;2.63;100.00;101345.00;5085796;28;20168;-72
2021/12/06 02:35:52;;;;;;;66.20;34.17;;;;;;;2.61;100.00;101339.84;5088549;28;20047;-70
2021/12/06 02:38:19;;;;;;;62.45;33.03;;;;;;;2.60;100.00;101350.75;5086921;28;20048;-71
2021/12/06 02:40:44;;;;;;;69.07;34.72;;;;;;;2.58;100.00;101351.44;5084437;28;20360;-69
2021/12/06 02:43:11;;;;;;;65.82;34.67;;;;;;;2.61;100.00;101361.81;5087885;28;20032;-70
2021/12/06 02:45:37;;;;;;;66.78;34.65;;;;;;;2.60;100.00;101360.91;5087665;28;20059;-70
2021/12/06 02:48:06;;;;;;;64.22;33.45;;;;;;;2.60;100.00;101365.09;5085315;28;20034;-72
2021/12/06 02:50:52;;;;;;;62.65;33.90;;;;;;;2.60;100.00;101370.19;5088468;28;20023;-70
2021/12/06 02:53:19;;;;;;;62.92;33.60;;;;;;;2.60;100.00;101376.13;5087001;28;20039;-70
2021/12/06 02:55:51;;;;;;;64.07;34.28;;;;;;;2.59;100.00;101370.97;5082361;28;20023;-71
2021/12/06 02:58:33;;;;;;;65.80;35.67;;;;;;;2.57;100.00;101375.94;5088850;28;20039;-70
2021/12/06 03:01:01;;;;;;;64.05;33.03;;;;;;;2.59;100.00;101383.66;5086527;28;20115;-73
2021/12/06 03:03:26;;;;;;;65.30;34.53;;;;;;;2.58;100.00;101376.81;5087546;28;20103;-75
2021/12/06 03:05:52;;;;;;;70.07;35.42;;;;;;;2.57;100.00;101381.00;5085330;28;20115;-70
2021/12/06 03:08:39;;;;;;;62.85;34.20;;;;;;;2.58;100.00;101372.63;5084707;28;20032;-69
2021/12/06 03:11:07;;;;;;;62.72;32.83;;;;;;;2.55;100.00;101377.50;5086321;28;20114;-70
2021/12/06 03:13:32;;;;;;;68.53;34.70;;;;;;;2.56;100.00;101374.19;5084615;28;20036;-69
2021/12/06 03:15:58;;;;;;;66.63;34.83;;;;;;;2.54;100.00;101373.19;5085927;28;20062;-71
2021/12/06 03:18:23;;;;;;;67.53;35.38;;;;;;;2.56;100.00;101374.19;5086546;28;20054;-71
2021/12/06 03:20:49;;;;;;;64.57;34.25;;;;;;;2.54;100.00;101375.72;5086107;28;20029;-70
2021/12/06 03:23:14;;;;;;;68.32;35.55;;;;;;;2.55;100.00;101374.97;5085049;28;20028;-70
2021/12/06 03:25:40;;;;;;;69.63;35.35;;;;;;;2.55;100.00;101377.50;5087125;28;20551;-74
2021/12/06 03:28:06;;;;;;;66.82;34.55;;;;;;;2.55;100.00;101379.13;5088017;28;20030;-71
2021/12/06 03:30:31;;;;;;;66.88;34.22;;;;;;;2.56;100.00;101386.88;5083153;28;20028;-72
2021/12/06 03:32:57;;;;;;;71.32;36.08;;;;;;;2.57;100.00;101375.06;5086938;28;20044;-72
2021/12/06 03:35:22;;;;;;;67.20;35.25;;;;;;;2.53;100.00;101381.56;5085537;28;20118;-71
2021/12/06 03:37:48;;;;;;;72.15;35.53;;;;;;;2.52;100.00;101379.81;5085297;28;20052;-75
2021/12/06 03:40:13;;;;;;;67.43;34.97;;;;;;;2.52;100.00;101382.34;5085895;28;20036;-72
2021/12/06 03:42:39;;;;;;;73.15;36.63;;;;;;;2.56;100.00;101383.47;5086071;28;20039;-72
2021/12/06 03:45:07;;;;;;;73.13;37.05;;;;;;;2.54;100.00;101385.88;5086481;28;20028;-71
2021/12/06 03:47:32;;;;;;;73.32;35.90;;;;;;;2.53;100.00;101384.13;5082545;28;20035;-72
2021/12/06 03:49:59;;;;;;;70.13;35.55;;;;;;;2.54;100.00;101390.94;5084234;28;20025;-72
2021/12/06 03:52:25;;;;;;;71.82;35.75;;;;;;;2.53;100.00;101396.81;5088513;28;20501;-71
2021/12/06 03:54:52;;;;;;;66.80;35.28;;;;;;;2.57;100.00;101391.16;5083282;28;20069;-71
2021/12/06 03:57:18;;;;;;;75.90;35.88;;;;;;;2.53;100.00;101381.56;5085523;28;20023;-71
2021/12/06 03:59:43;;;;;;;69.78;36.00;;;;;;;2.50;100.00;101390.66;5086123;28;20701;-71
2021/12/06 04:02:10;;;;;;;78.18;37.08;;;;;;;2.53;100.00;101394.25;5085950;28;20028;-71
2021/12/06 04:04:36;;;;;;;72.28;37.08;;;;;;;2.49;100.00;101391.41;5087817;28;20027;-74
2021/12/06 04:07:02;;;;;;;75.97;37.05;;;;;;;2.48;100.00;101388.00;5085134;28;20035;-73
2021/12/06 04:09:28;;;;;;;72.30;35.92;;;;;;;2.43;100.00;101384.28;5084302;28;20028;-70
2021/12/06 04:11:53;;;;;;;76.60;36.95;;;;;;;2.47;100.00;101390.44;5083103;28;20032;-70
2021/12/06 04:14:19;;;;;;;75.40;36.75;;;;;;;2.41;100.00;101406.13;5086966;28;20038;-70
2021/12/06 04:16:44;;;;;;;77.28;36.13;;;;;;;2.40;100.00;101395.09;5084213;28;20070;-70
2021/12/06 04:19:10;;;;;;;73.20;36.22;;;;;;;2.41;100.00;101406.13;5069514;28;20024;-70
2021/12/06 04:21:38;;;;;;;73.82;35.67;;;;;;;2.40;100.00;101401.81;5083343;28;20122;-72
2021/12/06 04:24:04;;;;;;;76.50;36.03;;;;;;;2.40;100.00;101400.16;5086663;28;20058;-71
2021/12/06 04:26:29;;;;;;;79.15;36.25;;;;;;;2.40;100.00;101399.28;5083491;28;20606;-73
2021/12/06 04:28:59;;;;;;;81.95;38.28;;;;;;;2.36;100.00;101387.16;5086720;28;20036;-74
2021/12/06 04:31:33;;;;;;;77.97;36.42;;;;;;;2.35;100.00;101393.00;5084538;28;20795;-71
2021/12/06 04:33:59;;;;;;;72.72;34.80;;;;;;;2.25;100.00;101391.50;5086567;28;20512;-72
2021/12/06 04:36:25;;;;;;;71.07;35.13;;;;;;;2.19;100.00;101397.81;5089433;28;20482;-71
2021/12/06 04:38:50;;;;;;;65.25;34.72;;;;;;;2.05;100.00;101401.88;5090531;28;20084;-70
2021/12/06 04:41:16;;;;;;;69.57;35.67;;;;;;;1.93;100.00;101399.38;5088346;28;20071;-70
2021/12/06 04:43:42;;;;;;;68.68;34.38;;;;;;;1.85;100.00;101406.44;5088829;28;20032;-70
2021/12/06 04:46:07;;;;;;;69.88;34.20;;;;;;;1.75;100.00;101406.53;5089275;28;20074;-70
2021/12/06 04:48:33;;;;;;;61.95;31.90;;;;;;;1.59;100.00;101411.28;5091573;28;20063;-71
2021/12/06 04:50:59;;;;;;;69.28;33.75;;;;;;;1.52;100.00;101409.97;5092920;28;20032;-74
2021/12/06 04:53:28;;;;;;;67.75;34.38;;;;;;;1.43;100.00;101411.81;5089965;28;20047;-72
2021/12/06 04:56:15;;;;;;;73.60;35.00;;;;;;;1.34;100.00;101417.09;5091603;28;20035;-70
2021/12/06 04:58:54;;;;;;;72.53;34.80;;;;;;;1.22;100.00;101420.38;5091254;28;20054;-69
2021/12/06 05:01:24;;;;;;;69.72;35.10;;;;;;;1.13;100.00;101420.56;5107417;27;20036;-72
2021/12/06 05:03:51;;;;;;;;;;;;;;;1.05;100.00;101426.72;5090159;28;20344;-71
2021/12/06 05:06:23;;;;;;;76.97;33.67;;;;;;;1.01;100.00;101424.72;5093567;28;19916;-75
2021/12/06 05:08:52;;;;;;;72.68;34.20;;;;;;;0.92;100.00;101432.53;5089034;28;20056;-71
2021/12/06 05:11:24;;;;;;;75.22;35.10;;;;;;;0.85;100.00;101435.38;5090584;28;20023;-70
2021/12/06 05:13:52;;;;;;;74.85;34.25;;;;;;;0.80;100.00;101429.06;5088661;28;20478;-69
2021/12/06 05:16:18;;;;;;;80.20;35.60;;;;;;;0.72;100.00;101437.69;5090497;28;20056;-71
2021/12/06 05:18:43;;;;;;;80.38;35.72;;;;;;;0.65;100.00;101441.41;5092680;28;20440;-71
2021/12/06 05:21:09;;;;;;;77.45;34.72;;;;;;;0.60;100.00;101439.28;5088650;28;20089;-70
2021/12/06 05:23:34;;;;;;;85.63;35.97;;;;;;;0.57;100.00;101436.53;5091979;28;20032;-75
2021/12/06 05:26:00;;;;;;;89.32;38.28;;;;;;;0.56;100.00;101437.31;5093606;28;20055;-70
2021/12/06 05:28:31;;;;;;;98.90;38.92;;;;;;;0.58;100.00;101443.38;5090044;28;20394;-71
2021/12/06 05:30:57;;;;;;;95.07;38.20;;;;;;;0.59;100.00;101442.59;5091386;28;20070;-71
2021/12/06 05:33:30;;;;;;;96.68;38.35;;;;;;;0.50;100.00;101443.66;5091823;28;20028;-74
2021/12/06 05:35:59;;;;;;;94.25;38.15;;;;;;;0.41;100.00;101434.47;5087472;28;20045;-73
2021/12/06 05:38:27;;;;;;;96.88;37.42;;;;;;;0.35;100.00;101439.94;5091762;28;20062;-72
2021/12/06 05:40:54;;;;;;;87.20;36.65;;;;;;;0.25;100.00;101430.75;5089881;28;20028;-74
2021/12/06 05:43:20;;;;;;;93.00;36.72;;;;;;;0.21;100.00;101430.41;5088071;28;20433;-71
2021/12/06 05:45:46;;;;;;;90.53;37.60;;;;;;;0.19;100.00;101437.00;5086519;28;20093;-71
2021/12/06 05:48:11;;;;;;;91.95;38.35;;;;;;;0.17;100.00;101438.50;5089809;28;20040;-70
2021/12/06 05:50:36;;;;;;;102.90;38.90;;;;;;;0.15;100.00;101430.78;5080981;28;20081;-70
2021/12/06 05:53:03;;;;;;;104.22;39.97;;;;;;;0.18;100.00;101438.63;5085418;28;20032;-72
2021/12/06 05:55:28;;;;;;;94.55;37.83;;;;;;;0.08;100.00;101436.13;5087531;28;20047;-70
2021/12/06 05:57:56;;;;;;;175.13;38.58;;;;;;;0.02;100.00;101437.31;5089473;28;20032;-71
2021/12/06 06:00:24;;;;;;;227.27;34.85;;;;;;;0.07;100.00;101443.63;5083101;28;20051;-71
2021/12/06 06:02:50;;;;;;;394.15;37.97;;;;;;;0.02;100.00;101444.88;5089920;28;20039;-71
2021/12/06 06:05:18;;;;;;;475.10;37.53;;;;;;;0.06;100.00;101449.41;5088430;28;20047;-72
2021/12/06 06:07:43;;;;;;;346.85;34.63;;;;;;;0.05;100.00;101451.06;5087823;28;20455;-70
2021/12/06 06:10:09;;;;;;;370.38;32.50;;;;;;;0.11;100.00;101458.25;5082322;28;20067;-71
2021/12/06 06:12:34;;;;;;;547.03;37.03;;;;;;;0.05;100.00;101453.56;5082806;28;20051;-71
2021/12/06 06:15:00;;;;;;;449.95;32.95;;;;;;;0.06;100.00;101464.56;5089708;28;20532;-69
2021/12/06 06:17:27;;;;;;;557.95;35.78;;;;;;;0.03;100.00;101465.22;5088499;28;20059;-71
2021/12/06 06:19:56;;;;;;;320.67;30.42;;;;;;;0.03;100.00;101479.53;5084666;28;20632;-71
2021/12/06 06:22:23;;;;;;;428.73;32.50;;;;;;;0.02;100.00;101473.56;5084565;28;20471;-72
2021/12/06 06:24:49;;;;;;;342.77;30.30;;;;;;;-0.02;100.00;101472.44;5088922;28;20039;-71
2021/12/06 06:27:14;;;;;;;340.02;30.08;;;;;;;-0.04;100.00;101479.03;5086160;28;20035;-71
2021/12/06 06:29:39;;;;;;;250.43;28.15;;;;;;;0.01;100.00;101484.47;5086760;28;20425;-71
2021/12/06 06:32:11;;;;;;;245.00;29.38;;;;;;;0.02;100.00;101470.16;5090038;28;20032;-70
2021/12/06 06:34:37;;;;;;;300.02;31.08;;;;;;;0.16;100.00;101483.13;5082848;28;20046;-71
2021/12/06 06:37:03;;;;;;;296.05;31.25;;;;;;;0.21;100.00;101483.50;5080657;28;20476;-71
2021/12/06 06:39:28;;;;;;;334.30;32.10;;;;;;;0.19;100.00;101475.81;5089672;28;20059;-73
2021/12/06 06:41:54;;;;;;;410.00;33.42;;;;;;;0.21;100.00;101468.34;5086961;28;20053;-71
2021/12/06 06:44:20;;;;;;;300.02;31.50;;;;;;;0.25;100.00;101478.81;5079102;28;20107;-72
2021/12/06 06:46:47;;;;;;;291.88;32.30;;;;;;;0.29;100.00;101486.63;5083606;28;20048;-70
2021/12/06 06:49:13;;;;;;;325.00;33.05;;;;;;;0.30;100.00;101485.88;5086298;28;20036;-70
2021/12/06 06:51:40;;;;;;;266.45;33.63;;;;;;;0.38;100.00;101487.38;5088382;28;20027;-74
2021/12/06 06:54:06;;;;;;;298.75;34.25;;;;;;;0.39;100.00;101479.91;5088970;28;20028;-70
2021/12/06 06:56:32;;;;;;;217.18;32.42;;;;;;;0.46;100.00;101492.25;5084196;28;20039;-70
2021/12/06 06:58:58;;;;;;;140.23;30.73;;;;;;;0.54;100.00;101486.13;5088733;28;20077;-71
2021/12/06 07:01:24;;;;;;;192.30;31.35;;;;;;;0.64;100.00;101497.00;5075064;28;21673;-70
2021/12/06 07:03:53;;;;;;;182.68;33.17;;;;;;;0.63;100.00;101496.09;5084558;28;20495;-73
2021/12/06 07:06:28;;;;;;;119.47;31.13;;;;;;;0.68;100.00;101494.81;5085317;28;20031;-71
2021/12/06 07:08:56;;;;;;;194.85;33.13;;;;;;;0.71;100.00;101492.50;5089472;28;20028;-70
2021/12/06 07:11:22;;;;;;;208.20;33.45;;;;;;;0.72;100.00;101493.38;5088713;28;20059;-71
2021/12/06 07:13:48;;;;;;;218.98;33.30;;;;;;;0.77;100.00;101497.16;5088581;28;20024;-72
2021/12/06 07:16:15;;;;;;;163.18;33.50;;;;;;;0.80;100.00;101500.81;5082942;28;20032;-70
2021/12/06 07:18:41;;;;;;;216.35;37.30;;;;;;;0.86;100.00;101502.94;5082213;28;20112;-72
2021/12/06 07:21:08;;;;;;;165.50;36.63;;;;;;;0.89;100.00;101508.22;5080081;28;20535;-71
2021/12/06 07:23:38;;;;;;;270.00;36.80;;;;;;;0.93;100.00;101512.78;5088560;28;20470;-71
2021/12/06 07:26:05;;;;;;;242.35;39.13;;;;;;;0.98;100.00;101513.13;5089863;28;20043;-73
2021/12/06 07:28:31;;;;;;;185.15;36.17;;;;;;;0.92;100.00;101505.94;5087669;28;20534;-70
2021/12/06 07:30:58;;;;;;;207.98;37.78;;;;;;;0.96;100.00;101515.53;5090017;28;20166;-70
2021/12/06 07:33:25;;;;;;;230.68;38.58;;;;;;;1.00;100.00;101525.13;5083459;28;20371;-70
2021/12/06 07:35:51;;;;;;;246.63;40.83;;;;;;;1.01;100.00;101519.31;5089647;28;20035;-70
2021/12/06 07:38:16;;;;;;;192.43;39.60;;;;;;;1.10;100.00;101528.38;5083828;28;20055;-70
2021/12/06 07:40:41;;;;;;;245.85;43.00;;;;;;;1.12;100.00;101534.44;5088861;28;20024;-71
2021/12/06 07:43:07;;;;;;;359.80;45.65;;;;;;;1.13;100.00;101538.75;5085192;28;20058;-72
2021/12/06 07:45:33;;;;;;;250.88;43.45;;;;;;;1.14;100.00;101531.25;5087692;28;20024;-70
2021/12/06 07:47:58;;;;;;;228.48;41.88;;;;;;;1.17;100.00;101517.94;5087256;28;20073;-72
2021/12/06 07:50:24;;;;;;;291.98;44.22;;;;;;;1.22;100.00;101521.72;5081572;28;20035;-70
2021/12/06 07:52:52;;;;;;;188.68;40.92;;;;;;;1.22;100.00;101517.53;5063976;28;20483;-69
2021/12/06 07:55:19;;;;;;;373.00;46.70;;;;;;;1.21;100.00;101522.47;5087520;28;20020;-70
2021/12/06 07:57:46;;;;;;;273.95;44.17;;;;;;;1.17;100.00;101511.22;5087302;28;20175;-70
2021/12/06 08:00:15;;;;;;;243.25;40.67;;;;;;;1.20;100.00;101513.09;5088162;28;20124;-70
2021/12/06 08:02:41;;;;;;;313.88;47.15;;;;;;;1.17;100.00;101505.28;5084471;28;20039;-70
2021/12/06 08:07:51;;;;;;;264.80;44.75;;;;;;;1.20;100.00;101488.66;5084257;28;20043;-69
2021/12/06 08:10:17;;;;;;;444.20;51.28;;;;;;;1.27;100.00;101497.59;5088313;28;20036;-69
2021/12/06 08:12:42;;;;;;;277.45;44.67;;;;;;;1.27;100.00;101487.47;5068895;28;20040;-69
2021/12/06 08:15:09;;;;;;;203.88;45.42;;;;;;;1.30;100.00;101478.44;5085814;28;20038;-69
2021/12/06 08:17:35;;;;;;;178.38;45.47;;;;;;;1.34;100.00;101484.63;5087896;28;20050;-72
2021/12/06 08:20:00;;;;;;;202.32;48.03;;;;;;;1.42;100.00;101491.16;5085883;28;20458;-72
2021/12/06 08:22:26;;;;;;;171.70;47.58;;;;;;;1.46;100.00;101488.09;5086100;28;20450;-71
2021/12/06 08:24:51;;;;;;;181.13;50.63;;;;;;;1.43;100.00;101485.31;5087946;28;20116;-69
2021/12/06 08:27:17;;;;;;;153.43;47.25;;;;;;;1.45;100.00;101480.34;5083311;28;20088;-70
2021/12/06 08:29:43;;;;;;;152.43;49.22;;;;;;;1.48;100.00;101498.31;5084615;28;20032;-72
2021/12/06 08:32:11;;;;;;;138.02;47.90;;;;;;;1.53;100.00;101499.56;5084559;28;20040;-70
2021/12/06 08:34:41;;;;;;;140.32;49.03;;;;;;;1.53;100.00;101492.84;5084525;28;20078;-70
2021/12/06 08:37:06;;;;;;;;;;;;;;;1.64;100.00;101503.78;5084395;28;20067;-70
2021/12/06 08:39:32;;;;;;;145.30;47.38;;;;;;;1.65;100.00;101505.53;5087552;28;20402;-69
2021/12/06 08:41:57;;;;;;;153.20;47.65;;;;;;;1.69;100.00;101511.69;5084799;28;20457;-72
2021/12/06 08:44:22;;;;;;;200.73;49.47;;;;;;;1.70;100.00;101523.59;5083246;28;20123;-70
2021/12/06 08:46:48;;;;;;;180.80;50.58;;;;;;;1.72;100.00;101527.16;5066952;28;20468;-70
2021/12/06 08:49:13;;;;;;;207.05;50.85;;;;;;;1.72;100.00;101534.75;5084318;28;20139;-70
2021/12/06 08:51:43;;;;;;;224.60;49.25;;;;;;;1.74;100.00;101535.75;5088309;28;20028;-71
2021/12/06 08:54:12;;;;;;;185.15;48.75;;;;;;;1.72;100.00;101537.28;5085092;28;20034;-69
2021/12/06 08:56:38;;;;;;;165.02;47.75;;;;;;;1.75;100.00;101533.31;5087577;28;20020;-70
2021/12/06 08:59:06;;;;;;;181.07;46.35;;;;;;;1.78;100.00;101537.75;5086355;28;20038;-71
2021/12/06 09:01:32;;;;;;;228.10;49.47;;;;;;;1.78;100.00;101536.09;5086640;28;20040;-74
2021/12/06 09:03:57;;;;;;;200.88;46.40;;;;;;;1.81;100.00;101540.50;5087418;28;20119;-70
2021/12/06 09:06:23;;;;;;;196.60;47.40;;;;;;;1.83;100.00;101536.44;5087543;28;20118;-70
2021/12/06 09:08:48;;;;;;;190.15;48.03;;;;;;;1.85;100.00;101540.84;5087853;28;20402;-71
2021/12/06 09:11:14;;;;;;;202.32;50.00;;;;;;;1.89;100.00;101544.50;5087331;28;20358;-72
2021/12/06 09:13:41;;;;;;;217.93;50.33;;;;;;;1.92;100.00;101539.63;5085531;28;20383;-74
2021/12/06 09:16:10;;;;;;;167.13;49.05;;;;;;;1.95;100.00;101539.00;5083541;28;20047;-71
2021/12/06 09:18:38;;;;;;;167.35;47.65;;;;;;;1.95;100.00;101537.34;5083266;28;20044;-71
2021/12/06 09:21:15;;;;;;;178.80;51.33;;;;;;;1.99;100.00;101538.41;5090968;28;20031;-70
2021/12/06 09:23:42;;;;;;;167.85;47.45;;;;;;;2.05;100.00;101536.34;5086844;28;20029;-70
2021/12/06 09:26:07;;;;;;;151.10;50.22;;;;;;;2.12;100.00;101539.44;5089586;28;20032;-70
2021/12/06 09:28:33;;;;;;;154.90;51.20;;;;;;;2.17;100.00;101537.22;5088654;28;20032;-75
2021/12/06 09:31:01;;;;;;;154.18;50.72;;;;;;;2.22;100.00;101540.09;5089962;28;20423;-71
2021/12/06 09:33:28;;;;;;;148.88;49.17;;;;;;;2.23;100.00;101531.72;5088884;28;20571;-75
2021/12/06 09:35:57;;;;;;;130.23;44.60;;;;;;;2.36;100.00;101541.97;5090101;28;21906;-70
2021/12/06 09:38:27;;;;;;;112.18;44.33;;;;;;;2.39;100.00;101529.50;5089177;28;20071;-71
2021/12/06 09:40:53;;;;;;;;;;;;;;;2.40;100.00;101533.81;5089732;28;20035;-70
2021/12/06 09:43:20;;;;;;;114.15;41.75;;;;;;;2.26;100.00;101531.94;5084289;28;19916;-71
2021/12/06 09:45:46;;;;;;;120.40;42.97;;;;;;;2.25;100.00;101532.72;5091933;28;20024;-70
2021/12/06 09:48:14;;;;;;;117.15;41.42;;;;;;;2.27;100.00;101541.31;5085446;28;20060;-70
2021/12/06 09:50:49;;;;;;;114.53;43.10;;;;;;;2.30;100.00;101544.06;5087524;28;20059;-70
2021/12/06 09:53:19;;;;;;;115.80;43.15;;;;;;;2.27;100.00;101537.13;5088498;28;20028;-72
2021/12/06 09:55:48;;;;;;;116.43;44.47;;;;;;;2.27;100.00;101547.28;5089786;28;20167;-74
2021/12/06 09:58:14;;;;;;;107.82;42.05;;;;;;;2.31;100.00;101545.84;5086721;28;20016;-72
2021/12/06 10:00:44;;;;;;;116.57;42.30;;;;;;;2.32;100.00;101548.50;5088989;28;20036;-71
2021/12/06 10:03:12;;;;;;;106.85;36.70;;;;;;;2.33;100.00;101537.56;5086489;28;20462;-71
2021/12/06 10:05:37;;;;;;;114.63;42.97;;;;;;;2.29;100.00;101535.56;5083764;28;20085;-70
2021/12/06 10:08:03;;;;;;;110.68;39.85;;;;;;;2.32;100.00;101542.53;5089504;28;20040;-70
2021/12/06 10:10:30;;;;;;;107.22;39.55;;;;;;;2.33;100.00;101539.22;5085026;28;20040;-71
2021/12/06 10:12:56;;;;;;;98.18;38.17;;;;;;;2.34;100.00;101525.75;5088433;28;20032;-71
2021/12/06 10:15:25;;;;;;;106.78;41.58;;;;;;;2.38;100.00;101523.53;5090587;28;20043;-75
2021/12/06 10:17:52;;;;;;;103.15;37.28;;;;;;;2.44;100.00;101518.03;5083759;28;20024;-74
2021/12/06 10:20:18;;;;;;;91.10;36.15;;;;;;;2.46;100.00;101520.66;5091070;28;20032;-77
2021/12/06 10:22:44;;;;;;;94.40;35.95;;;;;;;2.47;100.00;101502.13;5082844;28;20428;-76
2021/12/06 10:25:09;;;;;;;84.32;34.58;;;;;;;2.52;100.00;101501.66;5086173;28;20444;-77
2021/12/06 10:27:35;;;;;;;87.53;34.45;;;;;;;2.55;100.00;101491.75;5087477;28;20085;-76
2021/12/06 10:30:07;;;;;;;86.80;33.70;;;;;;;2.59;100.00;101482.66;5085622;28;20695;-76
2021/12/06 10:32:36;;;;;;;88.75;34.15;;;;;;;2.59;100.00;101483.53;5086113;28;20028;-76
2021/12/06 10:35:05;;;;;;;;;;;;;;;2.68;100.00;101491.81;5085105;28;20024;-74
2021/12/06 10:37:51;;;;;;;101.85;30.27;;;;;;;2.73;100.00;101499.75;5085849;28;19920;-77
2021/12/06 10:40:27;;;;;;;122.22;37.78;;;;;;;2.66;100.00;101507.69;5084463;28;20036;-76
2021/12/06 10:42:55;;;;;;;139.30;38.35;;;;;;;2.61;100.00;101493.84;5086939;28;20030;-75
2021/12/06 10:45:30;;;;;;;136.77;39.95;;;;;;;2.61;100.00;101489.63;5088124;28;20040;-75
2021/12/06 10:48:20;;;;;;;126.30;34.85;;;;;;;2.68;100.00;101478.25;5082651;28;20038;-77
2021/12/06 10:50:51;;;;;;;156.85;39.22;;;;;;;2.68;100.00;101476.59;5087487;28;20028;-75
2021/12/06 10:53:20;;;;;;;137.15;39.33;;;;;;;2.65;100.00;101461.13;5088616;28;20115;-76
2021/12/06 10:55:47;;;;;;;148.70;41.10;;;;;;;2.67;100.00;101459.59;5089860;28;20039;-77
2021/12/06 10:58:16;;;;;;;154.65;39.70;;;;;;;2.63;100.00;101444.91;5084554;28;20032;-77
2021/12/06 11:01:10;;;;;;;144.95;39.95;;;;;;;2.61;100.00;101438.84;5087633;28;20058;-77
2021/12/06 11:03:45;;;;;;;133.63;38.55;;;;;;;2.60;100.00;101429.44;5085497;28;20221;-76
2021/12/06 11:06:18;;;;;;;115.22;36.50;;;;;;;2.61;100.00;101436.31;5087128;28;20097;-77
2021/12/06 11:08:46;;;;;;;112.55;34.95;;;;;;;2.66;100.00;101429.88;5083767;28;20032;-76
2021/12/06 11:11:20;;;;;;;100.20;32.42;;;;;;;2.76;100.00;101425.44;5087599;28;20032;-78
2021/12/06 11:13:52;;;;;;;108.13;34.67;;;;;;;2.80;100.00;101429.97;5087639;28;20814;-77
2021/12/06 11:16:23;;;;;;;105.47;34.25;;;;;;;2.79;100.00;101420.53;5089421;28;20031;-77
2021/12/06 11:18:55;;;;;;;90.13;32.75;;;;;;;2.81;100.00;101422.44;5084171;28;20375;-76
2021/12/06 11:21:31;;;;;;;82.88;29.13;;;;;;;2.81;100.00;101411.41;5087249;28;20073;-75
2021/12/06 11:24:15;;;;;;;75.82;29.40;;;;;;;2.73;100.00;101410.88;5087937;28;21465;-76
2021/12/06 11:27:01;;;;;;;66.47;28.23;;;;;;;2.71;100.00;101394.63;5086746;28;20024;-78
2021/12/06 11:29:39;;;;;;;63.15;26.33;;;;;;;2.74;100.00;101387.25;5085404;28;20425;-78